Карточка аэропорта UACC

Внимание!
Информация на этой странице в стадии наполнения.
Если вы не увидели какой-то информации, или заметили неточность - пожалуйста сообщите нам!
Спасибо!
Команда RU-STAFF
Название аэропортаАстана
Название аэропорта (англ.)Astana
Превышение1165 ft. (355.1 m.)
Координаты51°1.3319999999999', 71°28.014'
Высота перехода10000
Эшелон переходаby ATC
Коды ответчика0601-0627, 7201-7217
Зона ОрВДАстана РПИ (UACN)
Данные METARUACC 210300Z 23009MPS 9999 SCT018 BKN046 11/07 Q1014 NOSIG RMK QFE729/0973
Проноз погоды (TAF)UACC 210146Z 2102/2124 21009MPS 9999 SCT020 BKN040 TX15/2110Z TN06/2124Z TEMPO 2102/2110 25011G16MPS 3100 -SHRA FEW007 BKN011 BKN020CB BECMG 2110/2112 26008MPS SCT020CB BKN030 TEMPO 2110/2115 27009G14MPS -SHRA BKN011 BKN020CB BECMG 2115/2117 24006MPS BKN011 BKN030
NOTAMshow/hide NOTAM
AWOS   TABLE

Информация о ВПП

ВПП Длина ВПП (м.) Покрытие Курс ВПП Частота ILS
043500Асфальтобетон35109.5
223500Асфальтобетон215111.7

Диспетчерские позиции

Позывной Наименование органа УВД Частота
UACC_APPАстана Подход124.6
UACC_R_APPАстана Круг120.7
UACC_TWRАстана Вышка118.7
UACC_GNDАстана Руление119.6



Спутниковое изображение